createdAt,value
2018-02-24T00:00:14.806Z,954.67
2018-02-24T00:01:14.816Z,954.66
2018-02-24T00:02:14.827Z,954.6
2018-02-24T00:03:14.838Z,954.62
2018-02-24T00:04:14.848Z,954.61
2018-02-24T00:05:14.915Z,954.61
2018-02-24T00:06:14.869Z,954.62
2018-02-24T00:07:14.881Z,954.63
2018-02-24T00:08:14.896Z,954.62
2018-02-24T00:09:14.901Z,954.58
2018-02-24T00:10:14.912Z,954.66
2018-02-24T00:11:14.923Z,954.64
2018-02-24T00:12:14.933Z,954.61
2018-02-24T00:13:14.945Z,954.61
2018-02-24T00:14:14.954Z,954.64
2018-02-24T00:15:14.966Z,954.61
2018-02-24T00:16:14.975Z,954.67
2018-02-24T00:17:14.986Z,954.64
2018-02-24T00:18:14.998Z,954.64
2018-02-24T00:19:15.007Z,954.67
2018-02-24T00:20:15.017Z,954.63
2018-02-24T00:21:15.034Z,954.66
2018-02-24T00:22:15.040Z,954.66
2018-02-24T00:23:15.049Z,954.64
2018-02-24T00:24:15.061Z,954.67
2018-02-24T00:25:15.074Z,954.68
2018-02-24T00:26:15.083Z,954.73
2018-02-24T00:27:15.094Z,954.69
2018-02-24T00:28:15.104Z,954.74
2018-02-24T00:29:15.114Z,954.63
2018-02-24T00:30:15.126Z,954.66
2018-02-24T00:31:15.136Z,954.63
2018-02-24T00:32:15.148Z,954.66
2018-02-24T00:33:15.158Z,954.61
2018-02-24T00:34:15.169Z,954.6
2018-02-24T00:35:15.179Z,954.59
2018-02-24T00:36:15.189Z,954.53
2018-02-24T00:37:15.203Z,954.61
2018-02-24T00:38:15.213Z,954.62
2018-02-24T00:39:15.222Z,954.57
2018-02-24T00:40:15.234Z,954.54
2018-02-24T00:41:15.245Z,954.61
2018-02-24T00:42:15.259Z,954.56
2018-02-24T00:43:15.266Z,954.54
2018-02-24T00:44:15.278Z,954.59
2018-02-24T00:45:15.293Z,954.57
2018-02-24T00:46:15.299Z,954.58
2018-02-24T00:47:15.309Z,954.58
2018-02-24T00:48:15.321Z,954.63
2018-02-24T00:49:15.332Z,954.61
2018-02-24T00:50:15.342Z,954.59
2018-02-24T00:51:15.354Z,954.59
2018-02-24T00:52:15.365Z,954.6
2018-02-24T00:53:15.376Z,954.62
2018-02-24T00:54:15.389Z,954.58
2018-02-24T00:55:15.397Z,954.55
2018-02-24T00:56:15.408Z,954.62
2018-02-24T00:57:15.418Z,954.63
2018-02-24T00:58:15.430Z,954.69
2018-02-24T00:59:15.440Z,954.62
2018-02-24T01:00:15.473Z,954.61
2018-02-24T01:01:15.462Z,954.63
2018-02-24T01:02:15.472Z,954.62
2018-02-24T01:03:15.485Z,954.59
2018-02-24T01:04:15.497Z,954.65
2018-02-24T01:05:15.504Z,954.62
2018-02-24T01:06:15.516Z,954.63
2018-02-24T01:07:15.540Z,954.63
2018-02-24T01:08:15.737Z,954.6
2018-02-24T01:09:15.547Z,954.64
2018-02-24T01:10:15.558Z,954.52
2018-02-24T01:11:15.568Z,954.59
2018-02-24T01:12:15.580Z,954.6
2018-02-24T01:13:15.590Z,954.59
2018-02-24T01:14:15.613Z,954.57
2018-02-24T01:15:15.611Z,954.58
2018-02-24T01:16:15.622Z,954.55
2018-02-24T01:17:15.634Z,954.54
2018-02-24T01:18:15.642Z,954.49
2018-02-24T01:19:15.653Z,954.53
2018-02-24T01:20:15.669Z,954.51
2018-02-24T01:21:15.677Z,954.53
2018-02-24T01:22:15.686Z,954.53
2018-02-24T01:23:15.698Z,954.51
2018-02-24T01:24:15.709Z,954.47
2018-02-24T01:25:15.719Z,954.45
2018-02-24T01:26:15.728Z,954.43
2018-02-24T01:27:15.740Z,954.48
2018-02-24T01:28:15.753Z,954.49
2018-02-24T01:29:15.760Z,954.45
2018-02-24T01:30:15.774Z,954.52
2018-02-24T01:31:15.783Z,954.51
2018-02-24T01:32:15.794Z,954.54
2018-02-24T01:33:15.826Z,954.54
2018-02-24T01:34:15.815Z,954.44
2018-02-24T01:35:15.942Z,954.44
2018-02-24T01:36:15.842Z,954.45
2018-02-24T01:37:15.847Z,954.47
2018-02-24T01:38:15.859Z,954.42
2018-02-24T01:39:15.869Z,954.41
2018-02-24T01:40:15.878Z,954.41
2018-02-24T01:41:15.889Z,954.4
2018-02-24T01:42:15.899Z,954.48
2018-02-24T01:43:15.913Z,954.43
2018-02-24T01:44:15.920Z,954.45
2018-02-24T01:45:15.933Z,954.44
2018-02-24T01:46:15.943Z,954.45
2018-02-24T01:47:15.953Z,954.5
2018-02-24T01:48:15.978Z,954.48
2018-02-24T01:49:15.975Z,954.46
2018-02-24T01:50:15.986Z,954.43
2018-02-24T01:51:15.996Z,954.45
2018-02-24T01:52:16.010Z,954.53
2018-02-24T01:53:16.017Z,954.49
2018-02-24T01:54:16.028Z,954.48
2018-02-24T01:55:16.039Z,954.5
2018-02-24T01:56:16.049Z,954.46
2018-02-24T01:57:16.059Z,954.51
2018-02-24T01:58:16.069Z,954.52
2018-02-24T01:59:16.084Z,954.57
2018-02-24T02:00:16.091Z,954.52
2018-02-24T02:01:16.103Z,954.52
2018-02-24T02:02:16.112Z,954.51
2018-02-24T02:03:16.126Z,954.57
2018-02-24T02:04:16.137Z,954.6
2018-02-24T02:05:16.145Z,954.52
2018-02-24T02:06:16.154Z,954.53
2018-02-24T02:07:16.165Z,954.49
2018-02-24T02:08:16.175Z,954.46
2018-02-24T02:09:16.236Z,954.53
2018-02-24T02:10:16.197Z,954.5
2018-02-24T02:11:16.206Z,954.49
2018-02-24T02:12:16.218Z,954.47
2018-02-24T02:13:16.228Z,954.45
2018-02-24T02:14:16.238Z,954.46
2018-02-24T02:15:16.250Z,954.45
2018-02-24T02:16:16.260Z,954.5
2018-02-24T02:17:16.270Z,954.41
2018-02-24T02:18:16.280Z,954.37
2018-02-24T02:19:16.295Z,954.45
2018-02-24T02:20:16.304Z,954.48
2018-02-24T02:21:16.313Z,954.47
2018-02-24T02:22:16.322Z,954.46
2018-02-24T02:23:16.332Z,954.5
2018-02-24T02:24:16.393Z,954.43
2018-02-24T02:25:16.356Z,954.49
2018-02-24T02:26:16.364Z,954.48
2018-02-24T02:27:16.379Z,954.47
2018-02-24T02:28:16.385Z,954.44
2018-02-24T02:29:16.401Z,954.4
2018-02-24T02:30:16.408Z,954.42
2018-02-24T02:31:16.422Z,954.42
2018-02-24T02:32:16.427Z,954.48
2018-02-24T02:33:16.439Z,954.51
2018-02-24T02:34:16.453Z,954.48
2018-02-24T02:35:16.456Z,954.52
2018-02-24T02:36:16.469Z,954.52
2018-02-24T02:37:16.480Z,954.55
2018-02-24T02:38:16.490Z,954.5
2018-02-24T02:39:16.649Z,954.51
2018-02-24T02:40:16.509Z,954.51
2018-02-24T02:41:16.520Z,954.54
2018-02-24T02:42:16.535Z,954.49
2018-02-24T02:43:16.542Z,954.5
2018-02-24T02:44:16.553Z,954.45
2018-02-24T02:45:16.561Z,954.48
2018-02-24T02:46:16.578Z,954.5
2018-02-24T02:47:16.583Z,954.51
2018-02-24T02:48:16.593Z,954.5
2018-02-24T02:49:16.603Z,954.52
2018-02-24T02:50:16.613Z,954.52
2018-02-24T02:51:16.624Z,954.53
2018-02-24T02:52:16.634Z,954.5
2018-02-24T02:53:16.644Z,954.54
2018-02-24T02:54:16.704Z,954.51
2018-02-24T02:55:16.666Z,954.5
2018-02-24T02:56:16.675Z,954.49
2018-02-24T02:57:16.683Z,954.48
2018-02-24T02:58:16.697Z,954.5
2018-02-24T02:59:16.706Z,954.57
2018-02-24T03:00:16.716Z,954.49
2018-02-24T03:01:16.726Z,954.55
2018-02-24T03:02:16.740Z,954.49
2018-02-24T03:03:16.749Z,954.55
2018-02-24T03:04:16.757Z,954.49
2018-02-24T03:05:16.767Z,954.53
2018-02-24T03:06:16.779Z,954.51
2018-02-24T03:07:16.790Z,954.55
2018-02-24T03:08:16.798Z,954.53
2018-02-24T03:09:16.858Z,954.54
2018-02-24T03:10:16.819Z,954.51
2018-02-24T03:11:16.829Z,954.56
2018-02-24T03:12:16.839Z,954.62
2018-02-24T03:13:16.850Z,954.63
2018-02-24T03:14:16.860Z,954.61
2018-02-24T03:15:16.877Z,954.58
2018-02-24T03:16:16.881Z,954.6
2018-02-24T03:17:16.901Z,954.6
2018-02-24T03:18:16.902Z,954.65
2018-02-24T03:19:16.912Z,954.6
2018-02-24T03:20:16.926Z,954.56
2018-02-24T03:21:16.933Z,954.58
2018-02-24T03:22:16.943Z,954.6
2018-02-24T03:23:16.954Z,954.59
2018-02-24T03:24:17.015Z,954.58
2018-02-24T03:25:16.974Z,954.53
2018-02-24T03:26:16.985Z,954.65
2018-02-24T03:27:16.997Z,954.64
2018-02-24T03:28:17.026Z,954.67
2018-02-24T03:29:17.016Z,954.65
2018-02-24T03:30:17.027Z,954.66
2018-02-24T03:31:17.040Z,954.63
2018-02-24T03:32:17.047Z,954.65
2018-02-24T03:33:17.057Z,954.69
2018-02-24T03:34:17.068Z,954.67
2018-02-24T03:35:17.092Z,954.67
2018-02-24T03:36:17.087Z,954.65
2018-02-24T03:37:17.098Z,954.65
2018-02-24T03:38:17.107Z,954.71
2018-02-24T03:39:17.167Z,954.71
2018-02-24T03:40:17.130Z,954.68
2018-02-24T03:41:17.139Z,954.63
2018-02-24T03:42:17.158Z,954.66
2018-02-24T03:43:17.172Z,954.73
2018-02-24T03:44:17.168Z,954.74
2018-02-24T03:45:17.179Z,954.71
2018-02-24T03:46:17.191Z,954.74
2018-02-24T03:47:17.200Z,954.67
2018-02-24T03:48:17.208Z,954.77
2018-02-24T03:49:17.225Z,954.75
2018-02-24T03:50:17.231Z,954.67
2018-02-24T03:51:17.241Z,954.74
2018-02-24T03:52:17.249Z,954.72
2018-02-24T03:53:17.259Z,954.71
2018-02-24T03:54:17.321Z,954.76
2018-02-24T03:55:17.279Z,954.87
2018-02-24T03:56:17.292Z,954.81
2018-02-24T03:57:17.301Z,954.85
2018-02-24T03:58:17.311Z,954.92
2018-02-24T03:59:17.319Z,954.9
2018-02-24T04:00:17.330Z,954.88
2018-02-24T04:01:17.343Z,954.86
2018-02-24T04:02:17.351Z,954.93
2018-02-24T04:03:17.361Z,954.88
2018-02-24T04:04:17.371Z,954.85
2018-02-24T04:05:17.382Z,954.81
2018-02-24T04:06:17.391Z,954.85
2018-02-24T04:07:17.400Z,954.84
2018-02-24T04:08:17.410Z,954.83
2018-02-24T04:09:17.470Z,954.97
2018-02-24T04:10:17.430Z,954.89
2018-02-24T04:11:17.452Z,954.87
2018-02-24T04:12:17.453Z,954.9
2018-02-24T04:13:17.462Z,954.88
2018-02-24T04:14:17.471Z,954.85
2018-02-24T04:15:17.481Z,954.89
2018-02-24T04:16:17.492Z,954.94
2018-02-24T04:17:17.503Z,954.95
2018-02-24T04:18:17.511Z,955.01
2018-02-24T04:19:17.521Z,954.99
2018-02-24T04:20:17.531Z,954.96
2018-02-24T04:21:17.540Z,954.93
2018-02-24T04:22:17.550Z,954.95
2018-02-24T04:23:17.562Z,954.94
2018-02-24T04:24:17.622Z,954.97
2018-02-24T04:25:17.581Z,954.99
2018-02-24T04:26:17.591Z,954.96
2018-02-24T04:27:17.601Z,954.93
2018-02-24T04:28:17.609Z,954.96
2018-02-24T04:29:17.620Z,954.99
2018-02-24T04:30:17.631Z,955.02
2018-02-24T04:31:17.641Z,954.93
2018-02-24T04:32:17.650Z,955.07
2018-02-24T04:33:17.661Z,954.95
2018-02-24T04:34:17.772Z,955.05
2018-02-24T04:35:17.681Z,954.99
2018-02-24T04:36:17.690Z,955.04
2018-02-24T04:37:17.702Z,954.99
2018-02-24T04:38:17.712Z,954.99
2018-02-24T04:39:17.770Z,954.99
2018-02-24T04:40:17.735Z,954.98
2018-02-24T04:41:17.742Z,954.98
2018-02-24T04:42:17.752Z,954.98
2018-02-24T04:43:17.762Z,954.98
2018-02-24T04:44:17.772Z,954.99
2018-02-24T04:45:17.781Z,954.94
2018-02-24T04:46:17.792Z,954.95
2018-02-24T04:47:17.801Z,954.99
2018-02-24T04:48:17.812Z,954.98
2018-02-24T04:49:17.821Z,955.05
2018-02-24T04:50:17.834Z,955.01
2018-02-24T04:51:17.839Z,955.02
2018-02-24T04:52:17.851Z,954.95
2018-02-24T04:53:17.860Z,954.98
2018-02-24T04:54:17.918Z,954.98
2018-02-24T04:55:17.881Z,954.97
2018-02-24T04:56:17.892Z,954.98
2018-02-24T04:57:17.900Z,955.03
2018-02-24T04:58:17.910Z,955.05
2018-02-24T04:59:17.921Z,955.02
2018-02-24T05:00:17.932Z,955.01
2018-02-24T05:01:17.942Z,955.07
2018-02-24T05:02:17.950Z,955.06
2018-02-24T05:03:17.962Z,955.06
2018-02-24T05:04:17.972Z,955.05
2018-02-24T05:05:17.981Z,955.02
2018-02-24T05:06:17.991Z,955.02
2018-02-24T05:07:18.001Z,955.1
2018-02-24T05:08:18.016Z,955.04
2018-02-24T05:09:18.072Z,955.12
2018-02-24T05:10:18.036Z,955.11
2018-02-24T05:11:18.043Z,955.16
2018-02-24T05:12:18.052Z,955.02
2018-02-24T05:13:18.063Z,955.14
2018-02-24T05:14:18.073Z,955.11
2018-02-24T05:15:18.086Z,955.1
2018-02-24T05:16:18.093Z,955.12
2018-02-24T05:17:18.102Z,955.14
2018-02-24T05:18:18.112Z,955.12
2018-02-24T05:19:18.229Z,955.13
2018-02-24T05:20:18.132Z,955.14
2018-02-24T05:21:18.144Z,955.21
2018-02-24T05:22:18.153Z,955.21
2018-02-24T05:23:18.162Z,955.19
2018-02-24T05:24:18.223Z,955.17
2018-02-24T05:25:18.185Z,955.15
2018-02-24T05:26:18.193Z,955.17
2018-02-24T05:27:18.203Z,955.23
2018-02-24T05:28:18.213Z,955.28
2018-02-24T05:29:18.274Z,955.24
2018-02-24T05:30:18.236Z,955.22
2018-02-24T05:31:18.243Z,955.23
2018-02-24T05:32:18.254Z,955.27
2018-02-24T05:33:18.264Z,955.24
2018-02-24T05:34:18.273Z,955.3
2018-02-24T05:35:18.284Z,955.29
2018-02-24T05:36:18.294Z,955.35
2018-02-24T05:37:18.303Z,955.35
2018-02-24T05:38:18.314Z,955.35
2018-02-24T05:39:18.322Z,955.32
2018-02-24T05:40:18.334Z,955.4
2018-02-24T05:41:18.342Z,955.36
2018-02-24T05:42:18.352Z,955.39
2018-02-24T05:43:18.363Z,955.33
2018-02-24T05:44:18.423Z,955.36
2018-02-24T05:45:18.382Z,955.38
2018-02-24T05:46:18.391Z,955.38
2018-02-24T05:47:18.401Z,955.41
2018-02-24T05:48:18.412Z,955.41
2018-02-24T05:49:18.421Z,955.35
2018-02-24T05:50:18.432Z,955.38
2018-02-24T05:51:18.441Z,955.37
2018-02-24T05:52:18.452Z,955.43
2018-02-24T05:53:18.461Z,955.41
2018-02-24T05:54:18.470Z,955.39
2018-02-24T05:55:18.481Z,955.42
2018-02-24T05:56:18.491Z,955.42
2018-02-24T05:57:18.500Z,955.41
2018-02-24T05:58:18.510Z,955.41
2018-02-24T05:59:18.571Z,955.41
2018-02-24T06:00:18.529Z,955.53
2018-02-24T06:01:18.541Z,955.44
2018-02-24T06:02:18.550Z,955.45
2018-02-24T06:03:18.561Z,955.44
2018-02-24T06:04:18.568Z,955.41
2018-02-24T06:05:18.579Z,955.44
2018-02-24T06:06:18.588Z,955.39
2018-02-24T06:07:18.598Z,955.38
2018-02-24T06:08:18.608Z,955.42
2018-02-24T06:09:18.618Z,955.42
2018-02-24T06:10:18.629Z,955.42
2018-02-24T06:11:18.638Z,955.39
2018-02-24T06:12:18.648Z,955.42
2018-02-24T06:13:18.658Z,955.47
2018-02-24T06:14:18.717Z,955.36
2018-02-24T06:15:18.678Z,955.51
2018-02-24T06:16:18.688Z,955.43
2018-02-24T06:17:18.699Z,955.47
2018-02-24T06:18:18.707Z,955.54
2018-02-24T06:19:18.716Z,955.63
2018-02-24T06:20:18.728Z,955.58
2018-02-24T06:21:18.755Z,955.56
2018-02-24T06:22:18.745Z,955.58
2018-02-24T06:23:18.756Z,955.56
2018-02-24T06:24:18.864Z,955.49
2018-02-24T06:25:18.774Z,955.58
2018-02-24T06:26:18.785Z,955.55
2018-02-24T06:27:18.794Z,955.6
2018-02-24T06:28:18.805Z,955.63
2018-02-24T06:29:18.813Z,955.64
2018-02-24T06:30:18.824Z,955.65
2018-02-24T06:31:18.834Z,955.66
2018-02-24T06:32:18.844Z,955.73
2018-02-24T06:33:18.854Z,955.67
2018-02-24T06:34:18.865Z,955.73
2018-02-24T06:35:18.874Z,955.68
2018-02-24T06:36:18.884Z,955.73
2018-02-24T06:37:18.894Z,955.73
2018-02-24T06:38:18.904Z,955.76
2018-02-24T06:39:18.913Z,955.81
2018-02-24T06:40:18.923Z,955.78
2018-02-24T06:41:18.933Z,955.78
2018-02-24T06:42:18.943Z,955.79
2018-02-24T06:43:18.954Z,955.84
2018-02-24T06:44:18.963Z,955.81
2018-02-24T06:45:18.974Z,955.82
2018-02-24T06:46:18.985Z,955.85
2018-02-24T06:47:18.992Z,955.83
2018-02-24T06:48:19.003Z,955.9
2018-02-24T06:49:19.013Z,955.89
2018-02-24T06:50:19.024Z,955.83
2018-02-24T06:51:19.034Z,955.87
2018-02-24T06:52:19.045Z,955.9
2018-02-24T06:53:19.060Z,955.92
2018-02-24T06:54:19.068Z,955.85
2018-02-24T06:55:19.075Z,955.94
2018-02-24T06:56:19.086Z,955.95
2018-02-24T06:57:19.098Z,955.97
2018-02-24T06:58:19.105Z,955.98
2018-02-24T06:59:19.116Z,955.99
2018-02-24T07:00:19.126Z,955.99
2018-02-24T07:01:19.137Z,955.95
2018-02-24T07:02:19.146Z,955.97
2018-02-24T07:03:19.155Z,955.97
2018-02-24T07:04:19.169Z,956.02
2018-02-24T07:05:19.180Z,956.01
2018-02-24T07:06:19.186Z,956
2018-02-24T07:07:19.196Z,956.05
2018-02-24T07:08:19.206Z,956.03
2018-02-24T07:09:19.217Z,956.07
2018-02-24T07:10:19.226Z,956.06
2018-02-24T07:11:19.235Z,956.07
2018-02-24T07:12:19.246Z,956.14
2018-02-24T07:13:19.263Z,956.14
2018-02-24T07:14:19.266Z,956.14
2018-02-24T07:15:19.278Z,956.17
2018-02-24T07:16:19.287Z,956.21
2018-02-24T07:17:19.295Z,956.16
2018-02-24T07:18:19.308Z,956.18
2018-02-24T07:19:19.318Z,956.23
2018-02-24T07:20:19.326Z,956.18
2018-02-24T07:21:19.338Z,956.19
2018-02-24T07:22:19.348Z,956.2
2018-02-24T07:23:19.358Z,956.24
2018-02-24T07:24:19.367Z,956.21
2018-02-24T07:25:19.378Z,956.23
2018-02-24T07:26:19.390Z,956.27
2018-02-24T07:27:19.397Z,956.22
2018-02-24T07:28:19.408Z,956.27
2018-02-24T07:29:19.418Z,956.28
2018-02-24T07:30:19.429Z,956.27
2018-02-24T07:31:19.437Z,956.24
2018-02-24T07:32:19.449Z,956.35
2018-02-24T07:33:19.458Z,956.29
2018-02-24T07:34:19.468Z,956.27
2018-02-24T07:35:19.478Z,956.32
2018-02-24T07:36:19.489Z,956.33
2018-02-24T07:37:19.499Z,956.32
2018-02-24T07:38:19.512Z,956.39
2018-02-24T07:39:19.519Z,956.4
2018-02-24T07:40:19.529Z,956.34
2018-02-24T07:41:19.540Z,956.39
2018-02-24T07:42:19.549Z,956.39
2018-02-24T07:43:19.562Z,956.39
2018-02-24T07:44:19.575Z,956.38
2018-02-24T07:45:19.580Z,956.42
2018-02-24T07:46:19.594Z,956.45
2018-02-24T07:47:19.602Z,956.4
2018-02-24T07:48:19.611Z,956.39
2018-02-24T07:49:19.619Z,956.36
2018-02-24T07:50:19.635Z,956.43
2018-02-24T07:51:19.642Z,956.38
2018-02-24T07:52:19.653Z,956.42
2018-02-24T07:53:19.663Z,956.38
2018-02-24T07:54:19.673Z,956.38
2018-02-24T07:55:19.684Z,956.42
2018-02-24T07:56:19.694Z,956.46
2018-02-24T07:57:19.704Z,956.38
2018-02-24T07:58:19.713Z,956.46
2018-02-24T07:59:19.726Z,956.48
2018-02-24T08:00:19.733Z,956.51
2018-02-24T08:01:19.746Z,956.51
2018-02-24T08:02:19.778Z,956.56
2018-02-24T08:03:19.772Z,956.46
2018-02-24T08:04:19.784Z,956.45
2018-02-24T08:05:19.793Z,956.49
2018-02-24T08:06:19.799Z,956.49
2018-02-24T08:07:19.809Z,956.45
2018-02-24T08:08:19.821Z,956.48
2018-02-24T08:09:19.843Z,956.48
2018-02-24T08:10:19.843Z,956.54
2018-02-24T08:11:19.852Z,956.52
2018-02-24T08:12:19.864Z,956.54
2018-02-24T08:13:19.875Z,956.52
2018-02-24T08:14:19.885Z,956.56
2018-02-24T08:15:19.900Z,956.67
2018-02-24T08:16:19.910Z,956.66
2018-02-24T08:17:19.917Z,956.62
2018-02-24T08:18:19.925Z,956.6
2018-02-24T08:19:20.090Z,956.6
2018-02-24T08:20:19.948Z,956.59
2018-02-24T08:21:19.962Z,956.61
2018-02-24T08:22:19.969Z,956.58
2018-02-24T08:23:19.980Z,956.66
2018-02-24T08:24:19.992Z,956.61
2018-02-24T08:25:20.002Z,956.63
2018-02-24T08:26:20.014Z,956.67
2018-02-24T08:27:20.023Z,956.62
2018-02-24T08:28:20.035Z,956.63
2018-02-24T08:29:20.044Z,956.63
2018-02-24T08:30:20.057Z,956.58
2018-02-24T08:31:20.067Z,956.63
2018-02-24T08:32:20.078Z,956.63
2018-02-24T08:33:20.087Z,956.6
2018-02-24T08:34:20.148Z,956.6
2018-02-24T08:35:20.110Z,956.65
2018-02-24T08:36:20.144Z,956.68
2018-02-24T08:37:20.137Z,956.65
2018-02-24T08:38:20.141Z,956.71
2018-02-24T08:39:20.223Z,956.75
2018-02-24T08:40:20.161Z,956.8
2018-02-24T08:41:20.175Z,956.82
2018-02-24T08:42:20.186Z,956.75
2018-02-24T08:43:20.197Z,956.86
2018-02-24T08:44:20.208Z,956.85
2018-02-24T08:45:20.220Z,956.88
2018-02-24T08:46:20.230Z,956.86
2018-02-24T08:47:20.242Z,956.85
2018-02-24T08:48:20.251Z,956.65
2018-02-24T08:49:20.262Z,956.79
2018-02-24T08:50:20.276Z,956.8
2018-02-24T08:51:20.285Z,956.82
2018-02-24T08:52:20.298Z,956.82
2018-02-24T08:53:20.308Z,956.85
2018-02-24T08:54:20.370Z,956.85
2018-02-24T08:55:20.332Z,956.94
2018-02-24T08:56:20.344Z,956.84
2018-02-24T08:57:20.356Z,956.91
2018-02-24T08:58:20.366Z,956.92
2018-02-24T08:59:20.428Z,956.9
2018-02-24T09:00:20.390Z,956.8
2018-02-24T09:01:20.402Z,956.85
2018-02-24T09:02:20.412Z,956.84
2018-02-24T09:03:20.425Z,956.85
2018-02-24T09:04:20.437Z,956.81
2018-02-24T09:05:20.449Z,956.85
2018-02-24T09:06:20.461Z,956.85
2018-02-24T09:07:20.472Z,956.85
2018-02-24T09:08:20.484Z,956.81
2018-02-24T09:09:20.498Z,956.87
2018-02-24T09:10:20.515Z,956.81
2018-02-24T09:11:20.520Z,956.83
2018-02-24T09:12:20.532Z,956.84
2018-02-24T09:13:20.544Z,956.87
2018-02-24T09:14:20.606Z,956.83
2018-02-24T09:15:20.567Z,956.84
2018-02-24T09:16:20.580Z,956.89
2018-02-24T09:17:20.592Z,956.8
2018-02-24T09:18:20.605Z,956.84
2018-02-24T09:19:20.617Z,956.95
2018-02-24T09:20:20.630Z,956.83
2018-02-24T09:21:20.642Z,956.92
2018-02-24T09:22:20.653Z,956.99
2018-02-24T09:23:20.668Z,956.95
2018-02-24T09:24:20.776Z,956.9
2018-02-24T09:25:20.745Z,956.9
2018-02-24T09:26:20.702Z,956.92
2018-02-24T09:27:20.733Z,956.87
2018-02-24T09:28:20.726Z,956.87
2018-02-24T09:29:20.786Z,956.88
2018-02-24T09:30:20.750Z,956.91
2018-02-24T09:31:20.762Z,956.83
2018-02-24T09:32:20.778Z,956.87
2018-02-24T09:33:20.785Z,956.85
2018-02-24T09:34:20.799Z,956.84
2018-02-24T09:35:20.810Z,956.85
2018-02-24T09:36:20.820Z,956.84
2018-02-24T09:37:20.836Z,956.84
2018-02-24T09:38:20.846Z,956.93
2018-02-24T09:39:20.857Z,956.91
2018-02-24T09:40:20.870Z,956.91
2018-02-24T09:41:20.883Z,956.86
2018-02-24T09:42:20.895Z,956.89
2018-02-24T09:43:20.907Z,956.87
2018-02-24T09:44:20.971Z,956.98
2018-02-24T09:45:20.933Z,956.95
2018-02-24T09:46:20.945Z,956.96
2018-02-24T09:47:20.957Z,956.96
2018-02-24T09:48:20.969Z,956.93
2018-02-24T09:49:20.984Z,957
2018-02-24T09:50:20.995Z,956.93
2018-02-24T09:51:21.008Z,956.92
2018-02-24T09:52:21.021Z,956.82
2018-02-24T09:53:21.033Z,956.91
2018-02-24T09:54:21.044Z,956.93
2018-02-24T09:55:21.058Z,956.88
2018-02-24T09:56:21.070Z,956.91
2018-02-24T09:57:21.138Z,956.93
2018-02-24T09:58:21.095Z,956.88
2018-02-24T09:59:21.158Z,956.93
2018-02-24T10:00:21.121Z,956.98
2018-02-24T10:01:21.132Z,956.98
2018-02-24T10:02:21.146Z,956.96
2018-02-24T10:03:21.160Z,956.96
2018-02-24T10:04:21.222Z,956.92
2018-02-24T10:05:21.185Z,956.95
2018-02-24T10:06:21.196Z,957
2018-02-24T10:07:21.211Z,956.89
2018-02-24T10:08:21.224Z,956.99
2018-02-24T10:09:21.234Z,956.93
2018-02-24T10:10:21.250Z,956.88
2018-02-24T10:11:21.282Z,956.95
2018-02-24T10:12:21.272Z,956.85
2018-02-24T10:13:21.286Z,956.9
2018-02-24T10:14:21.299Z,956.87
2018-02-24T10:15:21.311Z,956.86
2018-02-24T10:16:21.323Z,956.89
2018-02-24T10:17:21.348Z,956.97
2018-02-24T10:18:21.350Z,956.85
2018-02-24T10:19:21.411Z,956.94
2018-02-24T10:20:21.374Z,957
2018-02-24T10:21:21.387Z,956.96
2018-02-24T10:22:21.401Z,956.95
2018-02-24T10:23:21.416Z,956.97
2018-02-24T10:24:21.426Z,956.97
2018-02-24T10:25:21.438Z,957.03
2018-02-24T10:26:21.451Z,957.01
2018-02-24T10:27:21.464Z,957.04
2018-02-24T10:28:21.476Z,957.1
2018-02-24T10:29:21.490Z,956.96
2018-02-24T10:30:21.505Z,957.06
2018-02-24T10:31:21.520Z,956.98
2018-02-24T10:32:21.535Z,957.01
2018-02-24T10:33:21.550Z,957.02
2018-02-24T10:34:21.615Z,957.04
2018-02-24T10:35:21.581Z,957.11
2018-02-24T10:36:21.598Z,957.1
2018-02-24T10:37:21.614Z,957.08
2018-02-24T10:38:21.634Z,957.11
2018-02-24T10:39:21.649Z,957.09
2018-02-24T10:40:21.665Z,957.16
2018-02-24T10:41:21.684Z,957.13
2018-02-24T10:42:21.701Z,957.13
2018-02-24T10:43:21.721Z,957.13
2018-02-24T10:44:21.740Z,957.09
2018-02-24T10:45:21.758Z,957.12
2018-02-24T10:46:21.784Z,957.18
2018-02-24T10:47:21.800Z,957.19
2018-02-24T10:48:21.817Z,957.11
2018-02-24T10:49:21.887Z,957.16
2018-02-24T10:50:21.857Z,957.11
2018-02-24T10:51:21.878Z,957.15
2018-02-24T10:52:21.898Z,957.21
2018-02-24T10:53:21.918Z,957.16
2018-02-24T10:54:21.938Z,957.1
2018-02-24T10:55:21.964Z,957.17
2018-02-24T10:56:21.980Z,957.18
2018-02-24T10:57:22.004Z,957.23
2018-02-24T10:58:22.025Z,957.2
2018-02-24T10:59:22.106Z,957.17
2018-02-24T11:00:22.068Z,957.24
2018-02-24T11:01:22.090Z,957.17
2018-02-24T11:02:22.113Z,957.19
2018-02-24T11:03:22.135Z,957.19
2018-02-24T11:04:22.208Z,957.18
2018-02-24T11:05:22.180Z,957.08
2018-02-24T11:06:22.202Z,957.13
2018-02-24T11:07:22.224Z,957.06
2018-02-24T11:08:22.249Z,957.18
2018-02-24T11:09:22.271Z,957.17
2018-02-24T11:10:22.295Z,957.21
2018-02-24T11:11:22.327Z,957.14
2018-02-24T11:12:22.341Z,957.09
2018-02-24T11:13:22.362Z,957.1
2018-02-24T11:14:22.387Z,957.08
2018-02-24T11:15:22.410Z,957.1
2018-02-24T11:16:22.434Z,957.11
2018-02-24T11:17:23.658Z,957.12
2018-02-24T11:18:22.480Z,957.05
2018-02-24T11:19:22.505Z,957.14
2018-02-24T11:20:22.530Z,957.07
2018-02-24T11:21:22.553Z,957.12
2018-02-24T11:22:22.577Z,957.09
2018-02-24T11:23:22.602Z,957.03
2018-02-24T11:24:22.626Z,957.16
2018-02-24T11:25:22.650Z,957.1
2018-02-24T11:26:22.674Z,957.07
2018-02-24T11:27:22.700Z,957.08
2018-02-24T11:28:22.724Z,957.05
2018-02-24T11:29:22.750Z,956.99
2018-02-24T11:30:22.776Z,957.06
2018-02-24T11:31:22.800Z,957.04
2018-02-24T11:32:22.824Z,957.04
2018-02-24T11:33:22.850Z,957.03
2018-02-24T11:34:22.875Z,957.08
2018-02-24T11:35:22.901Z,957.12
2018-02-24T11:36:22.926Z,957.1
2018-02-24T11:37:22.951Z,957.1
2018-02-24T11:38:22.977Z,957.08
2018-02-24T11:39:23.001Z,957
2018-02-24T11:40:23.027Z,957
2018-02-24T11:41:23.053Z,957.11
2018-02-24T11:42:23.079Z,957.1
2018-02-24T11:43:23.107Z,957.08
2018-02-24T11:44:23.131Z,957.11
2018-02-24T11:45:23.156Z,957.08
2018-02-24T11:46:23.183Z,957.06
2018-02-24T11:47:23.210Z,956.97
2018-02-24T11:48:23.233Z,957.02
2018-02-24T11:49:23.261Z,957.02
2018-02-24T11:50:23.285Z,957.08
2018-02-24T11:51:23.319Z,957.14
2018-02-24T11:52:23.340Z,957.11
2018-02-24T11:53:23.366Z,957.07
2018-02-24T11:54:23.391Z,957.09
2018-02-24T11:55:23.421Z,957.09
2018-02-24T11:56:23.448Z,957.11
2018-02-24T11:57:23.474Z,957.05
2018-02-24T11:58:23.497Z,957.08
2018-02-24T11:59:23.525Z,957.06
2018-02-24T12:00:23.556Z,957.04
2018-02-24T12:01:23.578Z,957.07
2018-02-24T12:02:23.646Z,957.04
2018-02-24T12:03:23.633Z,957.07
2018-02-24T12:04:23.671Z,957.14
2018-02-24T12:05:23.686Z,957.12
2018-02-24T12:06:23.714Z,957.04
2018-02-24T12:07:23.741Z,957.13
2018-02-24T12:08:23.769Z,957.05
2018-02-24T12:09:23.849Z,957.07
2018-02-24T12:10:23.824Z,957.08
2018-02-24T12:11:23.850Z,957.14
2018-02-24T12:12:23.879Z,957.14
2018-02-24T12:13:23.908Z,957.06
2018-02-24T12:14:23.934Z,957.07
2018-02-24T12:15:23.967Z,957.14
2018-02-24T12:16:23.990Z,957.1
2018-02-24T12:17:24.019Z,957.1
2018-02-24T12:18:24.047Z,957.11
2018-02-24T12:19:24.084Z,957.07
2018-02-24T12:20:24.103Z,957.1
2018-02-24T12:21:24.132Z,957.15
2018-02-24T12:22:24.160Z,957.23
2018-02-24T12:23:24.188Z,957.2
2018-02-24T12:24:24.220Z,957.16
2018-02-24T12:25:24.244Z,957.26
2018-02-24T12:26:24.274Z,957.24
2018-02-24T12:27:24.302Z,957.27
2018-02-24T12:28:24.337Z,957.27
2018-02-24T12:29:24.359Z,957.2
2018-02-24T12:30:24.388Z,957.37
2018-02-24T12:31:24.414Z,957.22